Terminal Aerodrome Forecast
Issued by NWS Cleveland, OH

Home | Current Version | Previous Version | Graphics & Text | Print | Product List | Glossary On
Versions: 1 2 3 4 5 6 7 8 9 10 11 12 13 14 15 16 17 18 19 20 21 22 23 24 25 26 27 28
000
FTUS41 KCLE 191800 AAA
TAFERI
TAF AMD
KERI 191829Z 1918/2018 19018G28KT P6SM SCT035 OVC100
     FM191900 19018G28KT 5SM -SN SCT025 OVC045
      TEMPO 1920/1924 1SM -SN BR OVC025
     FM200000 19018G28KT 6SM -SN SCT012 OVC025
      TEMPO 2000/2004 4SM -SN BR OVC012
     FM200400 24018G28KT 5SM -SN BR OVC025
     FM201400 24016G26KT 6SM -SN BR OVC035=

USA.gov is the U.S. government's official web portal to all federal, state and local government web resources and services.